To NAV CANADA Home Page Login to a new session Search on AWWS site Feedback and Comments Disclaimer Vers la page française équivalente Tips FAQ What's new on the site To the Forecasts and Observations / NOTAM section To "File a Flight Plan" website Publications and other links Update of the User's profile FIC Telephone Numbers My Weather Data Folder Route Weather Data Regional Weather Data Local Weather Data To the Forecasts and Observations / NOTAM section
Request Generated 04/24/2014 at 03:15:03 UTC . Weather information available at that time is displayed.

METAR/TAF

MONTREAL/ST-HUBERT/QC    (show WxCam)

METAR CYHU 240300Z AUTO 33012KT 9SM OVC085 06/M04 A2979 RMK MAX WND
32022KT AT 0220Z SLP088=
METAR CYHU 240200Z AUTO 32012G17KT 9SM OVC090 07/M04 A2978 RMK MAX
WND 33023KT AT 0122Z SLP085=
METAR CYHU 240100Z AUTO 32017G23KT 9SM OVC080 07/M04 A2976 RMK MAX
WND 32025KT AT 0034Z SLP077=

TAF CYHU 232338Z 2400/2424 34015G25KT P6SM SCT050 OVC080
FM240200 32015KT P6SM SCT050
BECMG 2406/2408 30012KT
FM241200 32012G22KT P6SM FEW040
BECMG 2416/2418 30015G25KT
BECMG 2422/2424 33012KT
RMK FCST BASED ON AUTO OBS. NXT FCST BY 240600Z=
Your time UTC time
Weather data provided by Environment Canada and NAV CANADA